createdAt,value
2017-05-11T00:00:15.164Z,1001.82
2017-05-11T00:01:25.183Z,1001.81
2017-05-11T00:02:35.202Z,1001.8
2017-05-11T00:03:45.534Z,1001.79
2017-05-11T00:04:55.248Z,1001.8
2017-05-11T00:06:04.324Z,1001.76
2017-05-11T00:07:14.034Z,1001.78
2017-05-11T00:08:24.054Z,1001.76
2017-05-11T00:09:33.759Z,1001.75
2017-05-11T00:10:42.838Z,1001.73
2017-05-11T00:11:52.864Z,1001.73
2017-05-11T00:13:02.895Z,1001.73
2017-05-11T00:14:13.235Z,1001.73
2017-05-11T00:15:23.260Z,1001.67
2017-05-11T00:16:32.974Z,1001.64
2017-05-11T00:17:42.677Z,1001.67
2017-05-11T00:18:52.383Z,1001.58
2017-05-11T00:20:02.402Z,1001.6
2017-05-11T00:21:12.422Z,1001.58
2017-05-11T00:22:22.127Z,1001.58
2017-05-11T00:23:32.461Z,1001.55
2017-05-11T00:24:41.865Z,1001.54
2017-05-11T00:25:52.197Z,1001.48
2017-05-11T00:27:02.223Z,1001.5
2017-05-11T00:28:11.296Z,1001.48
2017-05-11T00:29:21.004Z,1001.49
2017-05-11T00:30:31.023Z,1001.47
2017-05-11T00:31:40.737Z,1001.48
2017-05-11T00:32:50.130Z,1001.44
2017-05-11T00:33:59.524Z,1001.47
2017-05-11T00:35:09.546Z,1001.37
2017-05-11T00:36:19.571Z,1001.37
2017-05-11T00:37:29.277Z,1001.33
2017-05-11T00:38:38.670Z,1001.37
2017-05-11T00:39:48.690Z,1001.33
2017-05-11T00:40:58.710Z,1001.33
2017-05-11T00:42:08.415Z,1001.28
2017-05-11T00:43:18.748Z,1001.25
2017-05-11T00:44:28.769Z,1001.21
2017-05-11T00:45:38.475Z,1001.16
2017-05-11T00:46:48.497Z,1001.14
2017-05-11T00:47:58.520Z,1001.15
2017-05-11T00:49:08.219Z,1001.17
2017-05-11T00:50:17.615Z,1001.1
2017-05-11T00:51:27.329Z,1001.08
2017-05-11T00:52:36.765Z,1001.08
2017-05-11T00:53:46.782Z,1001.11
2017-05-11T00:54:56.487Z,1001.13
2017-05-11T00:56:05.876Z,1001.05
2017-05-11T00:57:15.579Z,1001.07
2017-05-11T00:58:25.595Z,1001.06
2017-05-11T00:59:35.935Z,1001.08
2017-05-11T01:00:45.323Z,1001.05
2017-05-11T01:01:55.337Z,1001
2017-05-11T01:03:05.366Z,1001.02
2017-05-11T01:04:15.074Z,1000.99
2017-05-11T01:05:25.413Z,1000.98
2017-05-11T01:06:35.437Z,1000.97
2017-05-11T01:07:45.455Z,1000.96
2017-05-11T01:08:55.474Z,1000.94
2017-05-11T01:10:04.871Z,1000.86
2017-05-11T01:11:14.901Z,1000.92
2017-05-11T01:12:24.605Z,1000.9
2017-05-11T01:13:34.307Z,1000.81
2017-05-11T01:14:44.368Z,1000.9
2017-05-11T01:15:54.079Z,1000.89
2017-05-11T01:17:03.470Z,1000.84
2017-05-11T01:18:13.179Z,1000.86
2017-05-11T01:19:22.932Z,1000.81
2017-05-11T01:20:32.952Z,1000.79
2017-05-11T01:21:42.658Z,1000.82
2017-05-11T01:22:52.050Z,1000.77
2017-05-11T01:24:02.073Z,1000.79
2017-05-11T01:25:12.407Z,1000.78
2017-05-11T01:26:22.426Z,1000.74
2017-05-11T01:27:32.444Z,1000.73
2017-05-11T01:28:42.464Z,1000.79
2017-05-11T01:29:52.487Z,1000.79
2017-05-11T01:31:01.880Z,1000.75
2017-05-11T01:32:10.955Z,1000.77
2017-05-11T01:33:20.676Z,1000.76
2017-05-11T01:34:29.754Z,1000.72
2017-05-11T01:35:39.772Z,1000.76
2017-05-11T01:36:49.792Z,1000.77
2017-05-11T01:37:59.818Z,1000.65
2017-05-11T01:39:09.520Z,1000.74
2017-05-11T01:40:19.540Z,1000.69
2017-05-11T01:41:29.557Z,1000.7
2017-05-11T01:42:39.578Z,1000.65
2017-05-11T01:43:49.283Z,1000.64
2017-05-11T01:44:58.986Z,1000.57
2017-05-11T01:46:08.701Z,1000.58
2017-05-11T01:47:18.410Z,1000.57
2017-05-11T01:48:28.122Z,1000.56
2017-05-11T01:49:37.522Z,1000.51
2017-05-11T01:50:46.913Z,1000.48
2017-05-11T01:51:56.937Z,1000.5
2017-05-11T01:53:06.644Z,1000.44
2017-05-11T01:54:16.662Z,1000.44
2017-05-11T01:55:26.679Z,1000.48
2017-05-11T01:56:36.703Z,1000.4
2017-05-11T01:57:46.408Z,1000.42
2017-05-11T01:58:56.444Z,1000.45
2017-05-11T02:00:05.520Z,1000.38
2017-05-11T02:01:14.905Z,1000.39
2017-05-11T02:02:24.963Z,1000.39
2017-05-11T02:03:34.669Z,1000.35
2017-05-11T02:04:44.372Z,1000.33
2017-05-11T02:05:54.719Z,1000.31
2017-05-11T02:07:04.738Z,1000.33
2017-05-11T02:08:14.765Z,1000.29
2017-05-11T02:09:24.482Z,1000.25
2017-05-11T02:10:34.496Z,1000.25
2017-05-11T02:11:44.517Z,1000.27
2017-05-11T02:12:53.940Z,1000.18
2017-05-11T02:14:03.651Z,1000.19
2017-05-11T02:15:13.360Z,1000.17
2017-05-11T02:16:23.692Z,1000.17
2017-05-11T02:17:33.093Z,1000.16
2017-05-11T02:18:43.424Z,1000.15
2017-05-11T02:19:53.124Z,1000.13
2017-05-11T02:21:02.829Z,1000.13
2017-05-11T02:22:12.538Z,1000.17
2017-05-11T02:23:22.561Z,1000.17
2017-05-11T02:24:32.580Z,1000.13
2017-05-11T02:25:42.287Z,1000.09
2017-05-11T02:26:51.998Z,1000.07
2017-05-11T02:28:01.395Z,1000
2017-05-11T02:29:11.093Z,1000.03
2017-05-11T02:30:20.798Z,999.99
2017-05-11T02:31:30.815Z,1000
2017-05-11T02:32:40.526Z,1000.02
2017-05-11T02:33:49.922Z,1000.09
2017-05-11T02:34:59.945Z,1000
2017-05-11T02:36:09.667Z,999.93
2017-05-11T02:37:19.370Z,999.93
2017-05-11T02:38:29.080Z,999.92
2017-05-11T02:39:39.102Z,999.9
2017-05-11T02:40:49.439Z,999.84
2017-05-11T02:41:58.830Z,999.75
2017-05-11T02:43:09.167Z,999.76
2017-05-11T02:44:18.868Z,999.81
2017-05-11T02:45:28.574Z,999.73
2017-05-11T02:46:38.278Z,999.8
2017-05-11T02:47:47.987Z,999.75
2017-05-11T02:48:57.379Z,999.65
2017-05-11T02:50:07.096Z,999.7
2017-05-11T02:51:16.173Z,999.73
2017-05-11T02:52:26.193Z,999.67
2017-05-11T02:53:36.527Z,999.59
2017-05-11T02:54:46.233Z,999.63
2017-05-11T02:55:55.949Z,999.6
2017-05-11T02:57:05.974Z,999.59
2017-05-11T02:58:15.989Z,999.59
2017-05-11T02:59:25.697Z,999.55
2017-05-11T03:00:35.100Z,999.59
2017-05-11T03:01:45.121Z,999.57
2017-05-11T03:02:55.139Z,999.55
2017-05-11T03:04:04.851Z,999.48
2017-05-11T03:05:14.867Z,999.45
2017-05-11T03:06:25.205Z,999.46
2017-05-11T03:07:34.912Z,999.43
2017-05-11T03:08:44.939Z,999.49
2017-05-11T03:09:54.964Z,999.45
2017-05-11T03:11:04.666Z,999.38
2017-05-11T03:12:14.369Z,999.41
2017-05-11T03:13:23.758Z,999.41
2017-05-11T03:14:33.469Z,999.37
2017-05-11T03:15:43.800Z,999.36
2017-05-11T03:16:53.814Z,999.4
2017-05-11T03:18:03.839Z,999.35
2017-05-11T03:19:13.861Z,999.37
2017-05-11T03:20:23.254Z,999.41
2017-05-11T03:21:32.642Z,999.37
2017-05-11T03:22:42.702Z,999.28
2017-05-11T03:23:53.028Z,999.29
2017-05-11T03:25:02.734Z,999.31
2017-05-11T03:26:12.120Z,999.21
2017-05-11T03:27:22.147Z,999.25
2017-05-11T03:28:31.542Z,999.25
2017-05-11T03:29:41.285Z,999.21
2017-05-11T03:30:51.349Z,999.26
2017-05-11T03:32:01.101Z,999.25
2017-05-11T03:33:11.125Z,999.23
2017-05-11T03:34:20.846Z,999.22
2017-05-11T03:35:31.184Z,999.14
2017-05-11T03:36:40.893Z,999.18
2017-05-11T03:37:50.916Z,999.15
2017-05-11T03:39:00.310Z,999.2
2017-05-11T03:40:10.015Z,999.19
2017-05-11T03:41:20.034Z,999.17
2017-05-11T03:42:29.429Z,999.17
2017-05-11T03:43:38.509Z,999.1
2017-05-11T03:44:48.533Z,999.12
2017-05-11T03:45:58.254Z,999.1
2017-05-11T03:47:07.955Z,999.06
2017-05-11T03:48:17.970Z,999.06
2017-05-11T03:49:27.997Z,999.04
2017-05-11T03:50:37.739Z,999.04
2017-05-11T03:51:47.444Z,999
2017-05-11T03:52:56.208Z,999.02
2017-05-11T03:54:05.606Z,999.01
2017-05-11T03:55:14.686Z,998.99
2017-05-11T03:56:24.707Z,998.98
2017-05-11T03:57:34.419Z,998.99
2017-05-11T03:58:43.810Z,998.99
2017-05-11T03:59:53.833Z,999.01
2017-05-11T04:01:03.861Z,999
2017-05-11T04:02:13.878Z,998.93
2017-05-11T04:03:23.583Z,998.94
2017-05-11T04:04:33.289Z,998.94
2017-05-11T04:05:42.995Z,998.92
2017-05-11T04:06:52.697Z,998.83
2017-05-11T04:08:03.038Z,998.85
2017-05-11T04:09:13.057Z,998.86
2017-05-11T04:10:22.762Z,998.82
2017-05-11T04:11:32.158Z,998.84
2017-05-11T04:12:42.178Z,998.81
2017-05-11T04:13:52.201Z,998.78
2017-05-11T04:15:01.909Z,998.81
2017-05-11T04:16:12.240Z,998.83
2017-05-11T04:17:22.571Z,998.81
2017-05-11T04:18:32.902Z,998.78
2017-05-11T04:19:42.933Z,998.85
2017-05-11T04:20:52.336Z,998.82
2017-05-11T04:22:02.354Z,998.79
2017-05-11T04:23:11.438Z,998.85
2017-05-11T04:24:20.828Z,998.84
2017-05-11T04:25:30.850Z,998.86
2017-05-11T04:26:40.868Z,998.85
2017-05-11T04:27:50.614Z,998.82
2017-05-11T04:29:00.636Z,998.81
2017-05-11T04:30:10.348Z,998.86
2017-05-11T04:31:20.368Z,998.83
2017-05-11T04:32:30.381Z,998.84
2017-05-11T04:33:40.411Z,998.86
2017-05-11T04:34:50.430Z,998.85
2017-05-11T04:36:00.137Z,998.73
2017-05-11T04:37:10.152Z,998.76
2017-05-11T04:38:19.540Z,998.87
2017-05-11T04:39:28.930Z,998.79
2017-05-11T04:40:38.637Z,998.8
2017-05-11T04:41:48.649Z,998.76
2017-05-11T04:42:58.665Z,998.81
2017-05-11T04:44:08.372Z,998.79
2017-05-11T04:45:18.070Z,998.79
2017-05-11T04:46:27.471Z,998.76
2017-05-11T04:47:37.540Z,998.8
2017-05-11T04:48:47.248Z,998.82
2017-05-11T04:49:57.280Z,998.79
2017-05-11T04:51:06.984Z,998.82
2017-05-11T04:52:17.002Z,998.71
2017-05-11T04:53:26.708Z,998.77
2017-05-11T04:54:36.734Z,998.76
2017-05-11T04:55:46.435Z,998.74
2017-05-11T04:56:56.135Z,998.75
2017-05-11T04:58:05.527Z,998.74
2017-05-11T04:59:15.546Z,998.8
2017-05-11T05:00:24.949Z,998.83
2017-05-11T05:01:34.964Z,998.81
2017-05-11T05:02:45.295Z,998.85
2017-05-11T05:03:55.316Z,998.84
2017-05-11T05:05:05.023Z,998.85
2017-05-11T05:06:14.733Z,998.85
2017-05-11T05:07:24.754Z,998.83
2017-05-11T05:08:33.833Z,998.82
2017-05-11T05:09:43.557Z,998.8
2017-05-11T05:10:53.581Z,998.82
2017-05-11T05:12:02.968Z,998.82
2017-05-11T05:13:13.011Z,998.85
2017-05-11T05:14:23.037Z,998.83
2017-05-11T05:15:33.371Z,998.86
2017-05-11T05:16:43.083Z,998.87
2017-05-11T05:17:52.166Z,998.81
2017-05-11T05:19:01.563Z,998.77
2017-05-11T05:20:11.271Z,998.79
2017-05-11T05:21:20.659Z,998.76
2017-05-11T05:22:30.051Z,998.7
2017-05-11T05:23:40.073Z,998.74
2017-05-11T05:24:49.780Z,998.73
2017-05-11T05:25:59.492Z,998.72
2017-05-11T05:27:08.918Z,998.71
2017-05-11T05:28:18.304Z,998.79
2017-05-11T05:29:28.325Z,998.75
2017-05-11T05:30:38.339Z,998.77
2017-05-11T05:31:48.683Z,998.72
2017-05-11T05:32:58.080Z,998.74
2017-05-11T05:34:08.104Z,998.75
2017-05-11T05:35:18.447Z,998.7
2017-05-11T05:36:28.462Z,998.71
2017-05-11T05:37:38.800Z,998.75
2017-05-11T05:38:49.134Z,998.71
2017-05-11T05:39:58.529Z,998.7
2017-05-11T05:41:08.548Z,998.66
2017-05-11T05:42:18.571Z,998.69
2017-05-11T05:43:28.589Z,998.72
2017-05-11T05:44:38.294Z,998.67
2017-05-11T05:45:48.315Z,998.63
2017-05-11T05:46:58.329Z,998.72
2017-05-11T05:48:08.365Z,998.7
2017-05-11T05:49:17.756Z,998.71
2017-05-11T05:50:28.107Z,998.66
2017-05-11T05:51:38.122Z,998.68
2017-05-11T05:52:47.828Z,998.69
2017-05-11T05:53:57.878Z,998.69
2017-05-11T05:55:08.214Z,998.7
2017-05-11T05:56:18.231Z,998.71
2017-05-11T05:57:27.628Z,998.71
2017-05-11T05:58:37.973Z,998.62
2017-05-11T05:59:48.002Z,998.69
2017-05-11T06:00:58.338Z,998.66
2017-05-11T06:02:08.047Z,998.63
2017-05-11T06:03:17.747Z,998.61
2017-05-11T06:04:28.089Z,998.58
2017-05-11T06:05:38.110Z,998.59
2017-05-11T06:06:47.834Z,998.63
2017-05-11T06:07:57.541Z,998.59
2017-05-11T06:09:07.262Z,998.62
2017-05-11T06:10:17.286Z,998.58
2017-05-11T06:11:26.995Z,998.6
2017-05-11T06:12:36.383Z,998.6
2017-05-11T06:13:46.091Z,998.6
2017-05-11T06:14:56.112Z,998.57
2017-05-11T06:16:05.507Z,998.56
2017-05-11T06:17:15.216Z,998.61
2017-05-11T06:18:25.248Z,998.53
2017-05-11T06:19:34.959Z,998.58
2017-05-11T06:20:44.675Z,998.57
2017-05-11T06:21:54.696Z,998.59
2017-05-11T06:23:03.777Z,998.59
2017-05-11T06:24:14.126Z,998.57
2017-05-11T06:25:23.839Z,998.62
2017-05-11T06:26:33.230Z,998.64
2017-05-11T06:27:43.253Z,998.61
2017-05-11T06:28:53.276Z,998.65
2017-05-11T06:30:03.608Z,998.62
2017-05-11T06:31:13.320Z,998.63
2017-05-11T06:32:23.336Z,998.66
2017-05-11T06:33:33.673Z,998.68
2017-05-11T06:34:43.382Z,998.66
2017-05-11T06:35:53.093Z,998.67
2017-05-11T06:37:02.811Z,998.71
2017-05-11T06:38:12.515Z,998.74
2017-05-11T06:39:22.848Z,998.79
2017-05-11T06:40:32.246Z,998.78
2017-05-11T06:41:42.583Z,998.75
2017-05-11T06:42:52.609Z,998.74
2017-05-11T06:44:02.319Z,998.69
2017-05-11T06:45:11.714Z,998.76
2017-05-11T06:46:21.426Z,999.06
2017-05-11T06:47:31.137Z,999.38
2017-05-11T06:48:40.224Z,999.77
2017-05-11T06:49:49.630Z,999.94
2017-05-11T06:50:59.653Z,1000.13
2017-05-11T06:52:09.050Z,1000.36
2017-05-11T06:53:18.761Z,1000.63
2017-05-11T06:54:29.121Z,1000.72
2017-05-11T06:55:39.462Z,1000.87
2017-05-11T06:56:49.173Z,1001.09
2017-05-11T06:57:58.585Z,1001.44
2017-05-11T06:59:08.931Z,1001.52
2017-05-11T07:00:18.331Z,1001.85
2017-05-11T07:01:27.746Z,1002.17
2017-05-11T07:02:37.773Z,1002.52
2017-05-11T07:03:48.122Z,1002.75
2017-05-11T07:04:58.154Z,1002.8
2017-05-11T07:06:08.187Z,1002.98
2017-05-11T07:07:17.895Z,1003.24
2017-05-11T07:08:27.298Z,1003.53
2017-05-11T07:09:37.019Z,1003.8
2017-05-11T07:10:46.108Z,1004.13
2017-05-11T07:11:56.137Z,1003.87
2017-05-11T07:13:05.850Z,1004.23
2017-05-11T07:14:15.250Z,1004.08
2017-05-11T07:15:24.651Z,1004.28
2017-05-11T07:16:34.681Z,1004.55
2017-05-11T07:17:44.397Z,1004.66
2017-05-11T07:18:54.118Z,1004.75
2017-05-11T07:20:03.842Z,1004.71
2017-05-11T07:21:13.873Z,1004.83
2017-05-11T07:22:23.906Z,1004.96
2017-05-11T07:23:34.253Z,1004.98
2017-05-11T07:24:43.964Z,1004.99
2017-05-11T07:25:53.362Z,1004.72
2017-05-11T07:27:03.117Z,1004.77
2017-05-11T07:28:12.829Z,1003.16
2017-05-11T07:29:23.173Z,1000.06
2017-05-11T07:30:32.898Z,998.69
2017-05-11T07:31:42.931Z,998.67
2017-05-11T07:32:52.335Z,998.63
2017-05-11T07:34:02.370Z,998.61
2017-05-11T07:35:12.092Z,998.64
2017-05-11T07:36:22.473Z,998.61
2017-05-11T07:37:31.881Z,998.59
2017-05-11T07:38:41.908Z,998.64
2017-05-11T07:39:51.627Z,998.64
2017-05-11T07:41:01.346Z,998.64
2017-05-11T07:42:11.695Z,998.63
2017-05-11T07:43:21.410Z,998.59
2017-05-11T07:44:31.448Z,998.56
2017-05-11T07:45:41.841Z,998.55
2017-05-11T07:46:51.251Z,998.53
2017-05-11T07:48:00.028Z,998.56
2017-05-11T07:49:09.746Z,998.6
2017-05-11T07:50:19.789Z,998.69
2017-05-11T07:51:29.823Z,998.75
2017-05-11T07:52:39.850Z,1000.34
2017-05-11T07:53:48.633Z,1002.42
2017-05-11T07:54:57.725Z,1002.66
2017-05-11T07:56:07.149Z,1002.41
2017-05-11T07:57:16.555Z,1002.27
2017-05-11T07:58:26.267Z,1002.07
2017-05-11T07:59:36.297Z,1002.01
2017-05-11T08:00:46.690Z,1001.94
2017-05-11T08:01:56.407Z,1002.11
2017-05-11T08:03:05.822Z,1002.17
2017-05-11T08:04:15.861Z,1002.05
2017-05-11T08:05:25.937Z,1002
2017-05-11T08:06:35.975Z,1002.04
2017-05-11T08:07:45.387Z,1002.19
2017-05-11T08:08:55.423Z,1002.04
2017-05-11T08:10:05.153Z,1001.92
2017-05-11T08:11:15.196Z,1001.94
2017-05-11T08:12:25.551Z,1001.91
2017-05-11T08:13:35.276Z,1001.98
2017-05-11T08:14:45.325Z,1001.97
2017-05-11T08:15:55.361Z,1001.64
2017-05-11T08:17:05.138Z,1001.38
2017-05-11T08:18:14.557Z,1001.1
2017-05-11T08:19:24.289Z,1001.05
2017-05-11T08:20:34.328Z,1000.33
2017-05-11T08:21:44.048Z,1000.06
2017-05-11T08:22:53.780Z,1000.09
2017-05-11T08:24:04.134Z,999.99
2017-05-11T08:25:14.173Z,999.62
2017-05-11T08:26:24.210Z,999.29
2017-05-11T08:27:34.559Z,999.31
2017-05-11T08:28:44.282Z,999.21
2017-05-11T08:29:53.698Z,999.3
2017-05-11T08:31:03.736Z,999.37
2017-05-11T08:32:13.460Z,999.53
2017-05-11T08:33:22.873Z,999.61
2017-05-11T08:34:32.593Z,999.63
2017-05-11T08:35:42.654Z,999.67
2017-05-11T08:36:52.386Z,999.71
2017-05-11T08:38:02.425Z,999.86
2017-05-11T08:39:11.855Z,1000.15
2017-05-11T08:40:21.623Z,1000.21
2017-05-11T08:41:31.662Z,1000.3
2017-05-11T08:42:41.747Z,1000.37
2017-05-11T08:43:52.153Z,1000.38
2017-05-11T08:45:01.568Z,1000.58
2017-05-11T08:46:11.297Z,1000.64
2017-05-11T08:47:20.713Z,1000.69
2017-05-11T08:48:30.761Z,1000.56
2017-05-11T08:49:40.491Z,999.63
2017-05-11T08:50:50.221Z,999.51
2017-05-11T08:52:00.260Z,999.53
2017-05-11T08:53:10.300Z,999.62
2017-05-11T08:54:20.349Z,999.66
2017-05-11T08:55:30.387Z,999.97
2017-05-11T08:56:40.430Z,1000.01
2017-05-11T08:57:50.161Z,1000.18
2017-05-11T08:58:59.883Z,1000.35
2017-05-11T09:00:09.296Z,1000.65
2017-05-11T09:01:19.345Z,1000.77
2017-05-11T09:02:29.386Z,1000.86
2017-05-11T09:03:38.800Z,1000.64
2017-05-11T09:04:48.534Z,1000.58
2017-05-11T09:05:58.576Z,1000.61
2017-05-11T09:07:08.618Z,1000.61
2017-05-11T09:08:17.716Z,1000.81
2017-05-11T09:09:27.753Z,999.25
2017-05-11T09:10:37.792Z,999.25
2017-05-11T09:11:47.832Z,999.45
2017-05-11T09:12:57.563Z,998.27
2017-05-11T09:14:07.290Z,999.61
2017-05-11T09:15:16.704Z,999.9
2017-05-11T09:16:26.122Z,1000.77
2017-05-11T09:17:35.538Z,1000.5
2017-05-11T09:18:45.583Z,1000.08
2017-05-11T09:19:54.996Z,1000.38
2017-05-11T09:21:05.355Z,1003.93
2017-05-11T09:22:15.084Z,1004.05
2017-05-11T09:23:24.500Z,1003.97
2017-05-11T09:24:34.846Z,1002.35
2017-05-11T09:25:45.243Z,1001.03
2017-05-11T09:26:55.010Z,1003.51
2017-05-11T09:28:05.054Z,1000.86
2017-05-11T09:29:14.780Z,998.16
2017-05-11T09:30:24.188Z,1004.12
2017-05-11T09:31:33.912Z,999.4
2017-05-11T09:32:43.637Z,1001.3
2017-05-11T09:33:53.682Z,998.36
2017-05-11T09:35:03.415Z,998.05
2017-05-11T09:36:13.141Z,998.04
2017-05-11T09:37:22.554Z,998.06
2017-05-11T09:38:32.596Z,998.43
2017-05-11T09:39:42.645Z,999.03
2017-05-11T09:40:52.415Z,998.85
2017-05-11T09:42:01.823Z,998.88
2017-05-11T09:43:11.863Z,999.06
2017-05-11T09:44:21.591Z,998.23
2017-05-11T09:45:31.008Z,998.32
2017-05-11T09:46:40.422Z,998.22
2017-05-11T09:47:50.463Z,998.42
2017-05-11T09:49:00.504Z,998.7
2017-05-11T09:50:10.551Z,998.74
2017-05-11T09:51:20.286Z,998.51
2017-05-11T09:52:30.328Z,998.48
2017-05-11T09:53:40.370Z,998.53
2017-05-11T09:54:50.407Z,998.45
2017-05-11T09:55:59.862Z,998.43
2017-05-11T09:57:09.907Z,998.31
2017-05-11T09:58:19.949Z,998.22
2017-05-11T09:59:29.996Z,998.2
2017-05-11T10:00:39.410Z,998.26
2017-05-11T10:01:48.825Z,998.12
2017-05-11T10:02:57.917Z,998.35
2017-05-11T10:04:08.273Z,998.14
2017-05-11T10:05:17.688Z,998.33
2017-05-11T10:06:27.101Z,998.22
2017-05-11T10:07:37.144Z,998.36
2017-05-11T10:08:46.873Z,998.1
2017-05-11T10:09:56.918Z,998.41
2017-05-11T10:11:06.651Z,998.01
2017-05-11T10:12:15.756Z,998.21
2017-05-11T10:13:25.793Z,998.18
2017-05-11T10:14:35.834Z,998.1
2017-05-11T10:15:45.248Z,997.99
2017-05-11T10:16:54.983Z,997.88
2017-05-11T10:18:05.348Z,997.91
2017-05-11T10:19:14.761Z,997.88
2017-05-11T10:20:24.494Z,997.84
2017-05-11T10:21:33.904Z,997.84
2017-05-11T10:22:43.946Z,997.8
2017-05-11T10:23:53.040Z,997.79
2017-05-11T10:25:02.455Z,997.78
2017-05-11T10:26:12.192Z,997.68
2017-05-11T10:27:21.930Z,997.73
2017-05-11T10:28:31.982Z,997.67
2017-05-11T10:29:41.436Z,997.72
2017-05-11T10:30:50.856Z,997.75
2017-05-11T10:32:00.595Z,997.63
2017-05-11T10:33:10.948Z,997.69
2017-05-11T10:34:20.675Z,997.82
2017-05-11T10:35:30.726Z,997.84
2017-05-11T10:36:40.770Z,997.72
2017-05-11T10:37:50.509Z,997.86
2017-05-11T10:38:59.925Z,997.63
2017-05-11T10:40:09.378Z,997.74
2017-05-11T10:41:19.111Z,997.63
2017-05-11T10:42:29.467Z,997.49
2017-05-11T10:43:39.514Z,997.42
2017-05-11T10:44:48.950Z,997.38
2017-05-11T10:45:58.362Z,997.53
2017-05-11T10:47:08.719Z,997.38
2017-05-11T10:48:18.772Z,997.41
2017-05-11T10:49:28.508Z,997.32
2017-05-11T10:50:38.240Z,997.28
2017-05-11T10:51:48.292Z,997.35
2017-05-11T10:52:58.338Z,997.33
2017-05-11T10:54:08.071Z,997.38
2017-05-11T10:55:17.802Z,997.44
2017-05-11T10:56:28.169Z,997.53
2017-05-11T10:57:38.215Z,997.53
2017-05-11T10:58:47.938Z,997.44
2017-05-11T10:59:57.673Z,997.43
2017-05-11T11:01:07.407Z,997.61
2017-05-11T11:02:17.139Z,997.7
2017-05-11T11:03:27.496Z,997.56
2017-05-11T11:04:37.236Z,997.43
2017-05-11T11:05:47.291Z,997.6
2017-05-11T11:06:56.704Z,997.53
2017-05-11T11:08:06.122Z,997.46
2017-05-11T11:09:16.167Z,997.19
2017-05-11T11:10:25.891Z,997.25
2017-05-11T11:11:35.670Z,997.27
2017-05-11T11:12:45.396Z,997.21
2017-05-11T11:13:55.128Z,997.29
2017-05-11T11:15:04.868Z,997.58
2017-05-11T11:16:14.288Z,997.45
2017-05-11T11:17:24.644Z,997.38
2017-05-11T11:18:34.381Z,997.21
2017-05-11T11:19:44.115Z,997.3
2017-05-11T11:20:54.160Z,997.36
2017-05-11T11:22:03.891Z,997.38
2017-05-11T11:23:13.942Z,997.39
2017-05-11T11:24:23.355Z,997.14
2017-05-11T11:25:33.398Z,997.19
2017-05-11T11:26:43.139Z,997.18
2017-05-11T11:27:53.502Z,997.1
2017-05-11T11:29:02.945Z,997.07
2017-05-11T11:30:12.681Z,997.13
2017-05-11T11:31:22.097Z,997.14
2017-05-11T11:32:32.452Z,997.27
2017-05-11T11:33:42.185Z,997.07
2017-05-11T11:34:51.915Z,997.02
2017-05-11T11:36:02.282Z,997.01
2017-05-11T11:37:12.007Z,997
2017-05-11T11:38:21.735Z,996.95
2017-05-11T11:39:31.467Z,996.98
2017-05-11T11:40:41.507Z,996.98
2017-05-11T11:41:50.923Z,997.01
2017-05-11T11:43:00.691Z,996.99
2017-05-11T11:44:11.052Z,997.02
2017-05-11T11:45:20.774Z,996.94
2017-05-11T11:46:31.123Z,996.91
2017-05-11T11:47:40.850Z,996.96
2017-05-11T11:48:51.202Z,996.99
2017-05-11T11:50:00.614Z,996.96
2017-05-11T11:51:10.653Z,996.92
2017-05-11T11:52:21.017Z,996.89
2017-05-11T11:53:30.745Z,996.98
2017-05-11T11:54:40.796Z,996.88
2017-05-11T11:55:50.528Z,996.85
2017-05-11T11:56:59.947Z,996.88
2017-05-11T11:58:10.011Z,996.78
2017-05-11T11:59:19.424Z,996.74
2017-05-11T12:00:29.165Z,996.81
2017-05-11T12:01:39.205Z,996.76
2017-05-11T12:02:49.244Z,996.75
2017-05-11T12:03:59.605Z,996.65
2017-05-11T12:05:09.655Z,996.62
2017-05-11T12:06:19.385Z,996.57
2017-05-11T12:07:29.426Z,996.66
2017-05-11T12:08:39.470Z,996.61
2017-05-11T12:09:49.205Z,996.67
2017-05-11T12:10:59.253Z,996.68
2017-05-11T12:12:09.297Z,996.7
2017-05-11T12:13:19.649Z,996.67
2017-05-11T12:14:29.689Z,996.68
2017-05-11T12:15:39.468Z,996.72
2017-05-11T12:16:49.192Z,996.74
2017-05-11T12:17:58.605Z,996.74
2017-05-11T12:19:08.652Z,996.63
2017-05-11T12:20:18.071Z,996.68
2017-05-11T12:21:28.112Z,996.59
2017-05-11T12:22:37.853Z,996.65
2017-05-11T12:23:47.581Z,996.69
2017-05-11T12:24:57.320Z,996.69
2017-05-11T12:26:07.074Z,996.64
2017-05-11T12:27:16.808Z,996.57
2017-05-11T12:28:26.231Z,996.54
2017-05-11T12:29:36.598Z,996.5
2017-05-11T12:30:46.954Z,996.41
2017-05-11T12:31:56.724Z,996.41
2017-05-11T12:33:06.449Z,996.49
2017-05-11T12:34:16.184Z,996.52
2017-05-11T12:35:25.603Z,996.53
2017-05-11T12:36:35.024Z,996.5
2017-05-11T12:37:44.764Z,996.45
2017-05-11T12:38:54.489Z,996.41
2017-05-11T12:40:04.844Z,996.46
2017-05-11T12:41:14.576Z,996.45
2017-05-11T12:42:23.989Z,996.53
2017-05-11T12:43:34.030Z,996.54
2017-05-11T12:44:44.071Z,996.47
2017-05-11T12:45:54.119Z,996.49
2017-05-11T12:47:04.165Z,996.49
2017-05-11T12:48:13.893Z,996.44
2017-05-11T12:49:24.245Z,996.35
2017-05-11T12:50:33.660Z,996.45
2017-05-11T12:51:43.709Z,996.41
2017-05-11T12:52:53.435Z,996.37
2017-05-11T12:54:03.175Z,996.32
2017-05-11T12:55:13.219Z,996.3
2017-05-11T12:56:22.946Z,996.33
2017-05-11T12:57:32.364Z,996.28
2017-05-11T12:58:42.089Z,996.3
2017-05-11T12:59:52.449Z,996.3
2017-05-11T13:01:02.174Z,996.26
2017-05-11T13:02:12.243Z,996.22
2017-05-11T13:03:22.291Z,996.23
2017-05-11T13:04:32.021Z,996.18
2017-05-11T13:05:42.060Z,996.21
2017-05-11T13:06:51.470Z,996.23
2017-05-11T13:08:01.197Z,996.22
2017-05-11T13:09:10.922Z,996.2
2017-05-11T13:10:20.700Z,996.22
2017-05-11T13:11:30.738Z,996.17
2017-05-11T13:12:40.774Z,996.19
2017-05-11T13:13:51.128Z,996.21
2017-05-11T13:15:01.486Z,996.22
2017-05-11T13:16:11.849Z,996.18
2017-05-11T13:17:21.263Z,996.19
2017-05-11T13:18:31.310Z,996.19
2017-05-11T13:19:40.727Z,996.19
2017-05-11T13:20:49.883Z,996.17
2017-05-11T13:21:59.616Z,996.23
2017-05-11T13:23:09.658Z,996.2
2017-05-11T13:24:19.698Z,996.16
2017-05-11T13:25:29.733Z,996.16
2017-05-11T13:26:39.466Z,996.12
2017-05-11T13:27:48.884Z,996.1
2017-05-11T13:28:58.299Z,996.09
2017-05-11T13:30:08.346Z,996.04
2017-05-11T13:31:17.446Z,996.19
2017-05-11T13:32:27.174Z,996.22
2017-05-11T13:33:37.533Z,996.18
2017-05-11T13:34:47.572Z,996.11
2017-05-11T13:35:57.933Z,995.99
2017-05-11T13:37:08.294Z,995.93
2017-05-11T13:38:18.026Z,995.86
2017-05-11T13:39:27.447Z,995.89
2017-05-11T13:40:37.809Z,995.89
2017-05-11T13:41:47.227Z,995.87
2017-05-11T13:42:56.956Z,995.93
2017-05-11T13:44:06.991Z,995.9
2017-05-11T13:45:16.408Z,995.92
2017-05-11T13:46:25.820Z,995.88
2017-05-11T13:47:35.550Z,995.85
2017-05-11T13:48:45.282Z,995.99
2017-05-11T13:49:55.641Z,995.92
2017-05-11T13:51:05.373Z,995.91
2017-05-11T13:52:15.110Z,995.81
2017-05-11T13:53:24.837Z,995.77
2017-05-11T13:54:34.878Z,995.79
2017-05-11T13:55:43.662Z,995.79
2017-05-11T13:56:53.708Z,995.79
2017-05-11T13:58:03.759Z,995.79
2017-05-11T13:59:13.853Z,995.83
2017-05-11T14:00:24.220Z,995.84
2017-05-11T14:01:34.579Z,995.83
2017-05-11T14:02:44.316Z,995.77
2017-05-11T14:03:54.052Z,995.67
2017-05-11T14:05:04.419Z,995.72
2017-05-11T14:06:14.152Z,995.61
2017-05-11T14:07:24.516Z,995.66
2017-05-11T14:08:34.883Z,995.66
2017-05-11T14:09:44.628Z,995.66
2017-05-11T14:10:55.025Z,995.61
2017-05-11T14:12:05.385Z,995.64
2017-05-11T14:13:15.119Z,995.61
2017-05-11T14:14:25.482Z,995.53
2017-05-11T14:15:34.899Z,995.61
2017-05-11T14:16:44.630Z,995.57
2017-05-11T14:17:54.358Z,995.59
2017-05-11T14:19:04.100Z,995.58
2017-05-11T14:20:13.834Z,995.51
2017-05-11T14:21:23.565Z,995.48
2017-05-11T14:22:32.986Z,995.43
2017-05-11T14:23:43.029Z,995.33
2017-05-11T14:24:52.766Z,995.47
2017-05-11T14:26:02.811Z,995.4